sensor_id;sensor_type;location;lat;lon;timestamp;pressure;altitude;pressure_sealevel;temperature;humidity
75543;BME280;64129;53.508;10.476;2023-06-22T00:02:19;101488.16;;;16.32;82.31
75543;BME280;64129;53.508;10.476;2023-06-22T00:04:46;101485.69;;;16.51;81.22
75543;BME280;64129;53.508;10.476;2023-06-22T00:07:12;101496.88;;;16.39;81.78
75543;BME280;64129;53.508;10.476;2023-06-22T00:09:39;101492.69;;;16.55;81.25
75543;BME280;64129;53.508;10.476;2023-06-22T00:12:06;101489.00;;;16.34;82.33
75543;BME280;64129;53.508;10.476;2023-06-22T00:14:32;101489.09;;;16.31;82.41
75543;BME280;64129;53.508;10.476;2023-06-22T00:16:59;101492.38;;;16.39;81.81
75543;BME280;64129;53.508;10.476;2023-06-22T00:19:25;101490.06;;;16.53;80.92
75543;BME280;64129;53.508;10.476;2023-06-22T00:21:52;101490.06;;;16.53;80.97
75543;BME280;64129;53.508;10.476;2023-06-22T00:24:20;101492.97;;;16.22;82.09
75543;BME280;64129;53.508;10.476;2023-06-22T00:26:48;101491.16;;;16.23;82.25
75543;BME280;64129;53.508;10.476;2023-06-22T00:29:15;101485.56;;;16.29;82.34
75543;BME280;64129;53.508;10.476;2023-06-22T00:31:42;101481.53;;;16.42;80.83
75543;BME280;64129;53.508;10.476;2023-06-22T00:34:08;101486.25;;;16.36;81.25
75543;BME280;64129;53.508;10.476;2023-06-22T00:36:36;101483.41;;;16.40;81.62
75543;BME280;64129;53.508;10.476;2023-06-22T00:39:03;101483.06;;;16.49;81.31
75543;BME280;64129;53.508;10.476;2023-06-22T00:41:29;101488.44;;;16.49;80.89
75543;BME280;64129;53.508;10.476;2023-06-22T00:43:57;101492.34;;;16.14;82.47
75543;BME280;64129;53.508;10.476;2023-06-22T00:46:24;101496.34;;;16.28;82.34
75543;BME280;64129;53.508;10.476;2023-06-22T00:48:51;101507.06;;;16.28;82.35
75543;BME280;64129;53.508;10.476;2023-06-22T00:51:19;101496.22;;;16.32;81.80
75543;BME280;64129;53.508;10.476;2023-06-22T00:53:51;101496.22;;;16.32;82.29
75543;BME280;64129;53.508;10.476;2023-06-22T00:56:20;101498.16;;;16.27;82.52
75543;BME280;64129;53.508;10.476;2023-06-22T00:58:51;101507.00;;;16.29;82.40
75543;BME280;64129;53.508;10.476;2023-06-22T01:01:19;101513.94;;;16.36;81.67
75543;BME280;64129;53.508;10.476;2023-06-22T01:03:50;101500.69;;;16.32;82.11
75543;BME280;64129;53.508;10.476;2023-06-22T01:06:22;101501.34;;;16.38;81.82
75543;BME280;64129;53.508;10.476;2023-06-22T01:09:10;101503.41;;;16.30;81.83
75543;BME280;64129;53.508;10.476;2023-06-22T01:11:42;101512.00;;;16.15;82.06
75543;BME280;64129;53.508;10.476;2023-06-22T01:14:15;101508.03;;;16.00;83.30
75543;BME280;64129;53.508;10.476;2023-06-22T01:16:47;101502.31;;;16.11;83.03
75543;BME280;64129;53.508;10.476;2023-06-22T01:19:53;101505.31;;;16.02;83.57
75543;BME280;64129;53.508;10.476;2023-06-22T01:22:25;101504.94;;;16.12;82.77
75543;BME280;64129;53.508;10.476;2023-06-22T01:25:12;101498.31;;;15.98;83.70
75543;BME280;64129;53.508;10.476;2023-06-22T01:28:00;101493.13;;;15.91;83.69
75543;BME280;64129;53.508;10.476;2023-06-22T01:30:30;101493.88;;;15.97;83.51
75543;BME280;64129;53.508;10.476;2023-06-22T01:32:59;101484.97;;;15.95;83.28
75543;BME280;64129;53.508;10.476;2023-06-22T01:35:27;101490.25;;;15.98;83.42
75543;BME280;64129;53.508;10.476;2023-06-22T01:37:55;101496.72;;;15.90;83.13
75543;BME280;64129;53.508;10.476;2023-06-22T01:40:23;101482.31;;;15.68;84.67
75543;BME280;64129;53.508;10.476;2023-06-22T01:42:50;101494.94;;;15.65;84.92
75543;BME280;64129;53.508;10.476;2023-06-22T01:45:18;101487.56;;;15.71;84.90
75543;BME280;64129;53.508;10.476;2023-06-22T01:47:45;101481.91;;;15.80;84.69
75543;BME280;64129;53.508;10.476;2023-06-22T01:50:12;101484.69;;;15.77;84.47
75543;BME280;64129;53.508;10.476;2023-06-22T01:52:38;101485.63;;;15.76;84.76
75543;BME280;64129;53.508;10.476;2023-06-22T01:55:05;101486.28;;;15.83;84.54
75543;BME280;64129;53.508;10.476;2023-06-22T01:57:34;101483.72;;;15.80;84.49
75543;BME280;64129;53.508;10.476;2023-06-22T02:02:57;101487.31;;;15.79;84.09
75543;BME280;64129;53.508;10.476;2023-06-22T02:05:31;101480.84;;;15.58;85.38
75543;BME280;64129;53.508;10.476;2023-06-22T02:08:11;101487.38;;;15.77;84.25
75543;BME280;64129;53.508;10.476;2023-06-22T02:10:43;101494.19;;;15.59;85.09
75543;BME280;64129;53.508;10.476;2023-06-22T02:13:11;101486.75;;;15.69;84.69
75543;BME280;64129;53.508;10.476;2023-06-22T02:15:39;101484.81;;;15.45;85.81
75543;BME280;64129;53.508;10.476;2023-06-22T02:18:06;101487.03;;;15.60;84.94
75543;BME280;64129;53.508;10.476;2023-06-22T02:20:32;101487.09;;;15.57;84.53
75543;BME280;64129;53.508;10.476;2023-06-22T02:22:59;101477.06;;;15.65;83.64
75543;BME280;64129;53.508;10.476;2023-06-22T02:25:26;101481.66;;;15.62;84.28
75543;BME280;64129;53.508;10.476;2023-06-22T02:27:52;101495.00;;;15.63;84.52
75543;BME280;64129;53.508;10.476;2023-06-22T02:30:19;101488.75;;;15.63;84.58
75543;BME280;64129;53.508;10.476;2023-06-22T02:32:45;101484.50;;;15.54;85.06
75543;BME280;64129;53.508;10.476;2023-06-22T02:35:14;101482.34;;;15.39;85.35
75543;BME280;64129;53.508;10.476;2023-06-22T02:37:41;101478.22;;;15.55;84.75
75543;BME280;64129;53.508;10.476;2023-06-22T02:40:08;101483.06;;;15.44;84.75
75543;BME280;64129;53.508;10.476;2023-06-22T02:42:36;101474.41;;;15.36;85.23
75543;BME280;64129;53.508;10.476;2023-06-22T02:45:03;101473.19;;;15.46;84.28
75543;BME280;64129;53.508;10.476;2023-06-22T02:47:30;101474.97;;;15.45;84.45
75543;BME280;64129;53.508;10.476;2023-06-22T02:49:57;101483.94;;;15.44;84.63
75543;BME280;64129;53.508;10.476;2023-06-22T02:52:24;101478.72;;;15.40;84.58
75543;BME280;64129;53.508;10.476;2023-06-22T02:54:50;101482.28;;;15.40;84.36
75543;BME280;64129;53.508;10.476;2023-06-22T02:57:17;101479.56;;;15.42;84.94
75543;BME280;64129;53.508;10.476;2023-06-22T02:59:44;101487.31;;;15.21;85.57
75543;BME280;64129;53.508;10.476;2023-06-22T03:02:11;101492.41;;;15.31;85.66
75543;BME280;64129;53.508;10.476;2023-06-22T03:04:39;101480.59;;;15.38;84.58
75543;BME280;64129;53.508;10.476;2023-06-22T03:07:05;101488.63;;;15.38;84.79
75543;BME280;64129;53.508;10.476;2023-06-22T03:09:32;101488.53;;;15.41;84.11
75543;BME280;64129;53.508;10.476;2023-06-22T03:11:59;101491.34;;;15.36;84.63
75543;BME280;64129;53.508;10.476;2023-06-22T03:14:33;101482.53;;;15.33;84.94
75543;BME280;64129;53.508;10.476;2023-06-22T03:17:01;101475.56;;;15.27;85.31
75543;BME280;64129;53.508;10.476;2023-06-22T03:19:29;101479.44;;;15.17;86.16
75543;BME280;64129;53.508;10.476;2023-06-22T03:21:59;101488.00;;;15.29;85.80
75543;BME280;64129;53.508;10.476;2023-06-22T03:24:26;101485.31;;;15.29;85.24
75543;BME280;64129;53.508;10.476;2023-06-22T03:26:55;101490.72;;;15.28;86.21
75543;BME280;64129;53.508;10.476;2023-06-22T03:29:23;101490.56;;;15.33;85.60
75543;BME280;64129;53.508;10.476;2023-06-22T03:31:50;101489.59;;;15.35;85.74
75543;BME280;64129;53.508;10.476;2023-06-22T03:34:17;101496.97;;;15.55;84.47
75543;BME280;64129;53.508;10.476;2023-06-22T03:36:43;101507.09;;;15.45;85.42
75543;BME280;64129;53.508;10.476;2023-06-22T03:39:11;101501.44;;;15.54;85.31
75543;BME280;64129;53.508;10.476;2023-06-22T03:41:39;101503.81;;;15.37;86.79
75543;BME280;64129;53.508;10.476;2023-06-22T03:44:06;101505.06;;;15.53;86.39
75543;BME280;64129;53.508;10.476;2023-06-22T03:46:32;101515.66;;;15.58;85.54
75543;BME280;64129;53.508;10.476;2023-06-22T03:48:59;101517.56;;;15.53;86.69
75543;BME280;64129;53.508;10.476;2023-06-22T03:51:26;101514.56;;;15.65;86.29
75543;BME280;64129;53.508;10.476;2023-06-22T03:53:53;101515.34;;;15.69;86.27
75543;BME280;64129;53.508;10.476;2023-06-22T03:56:19;101521.66;;;15.66;86.93
75543;BME280;64129;53.508;10.476;2023-06-22T03:58:47;101528.56;;;15.73;86.67
75543;BME280;64129;53.508;10.476;2023-06-22T04:01:13;101533.19;;;15.68;87.57
75543;BME280;64129;53.508;10.476;2023-06-22T04:03:41;101531.81;;;15.83;87.20
75543;BME280;64129;53.508;10.476;2023-06-22T04:06:07;101529.13;;;15.83;87.91
75543;BME280;64129;53.508;10.476;2023-06-22T04:08:34;101534.97;;;15.96;87.94
75543;BME280;64129;53.508;10.476;2023-06-22T04:11:00;101533.22;;;15.95;87.86
75543;BME280;64129;53.508;10.476;2023-06-22T04:13:27;101542.44;;;15.86;89.26
75543;BME280;64129;53.508;10.476;2023-06-22T04:15:54;101544.56;;;16.03;88.47
75543;BME280;64129;53.508;10.476;2023-06-22T04:18:20;101557.03;;;16.04;88.38
75543;BME280;64129;53.508;10.476;2023-06-22T04:20:47;101549.41;;;16.18;87.75
75543;BME280;64129;53.508;10.476;2023-06-22T04:23:13;101550.22;;;16.20;88.44
75543;BME280;64129;53.508;10.476;2023-06-22T04:25:40;101544.34;;;16.35;86.86
75543;BME280;64129;53.508;10.476;2023-06-22T04:28:06;101547.66;;;16.43;86.95
75543;BME280;64129;53.508;10.476;2023-06-22T04:30:38;101549.41;;;16.44;88.16
75543;BME280;64129;53.508;10.476;2023-06-22T04:33:16;101554.53;;;16.50;88.36
75543;BME280;64129;53.508;10.476;2023-06-22T04:35:45;101541.19;;;16.49;89.40
75543;BME280;64129;53.508;10.476;2023-06-22T04:38:12;101532.88;;;16.57;89.56
75543;BME280;64129;53.508;10.476;2023-06-22T04:40:39;101537.03;;;16.67;89.38
75543;BME280;64129;53.508;10.476;2023-06-22T04:43:06;101539.25;;;16.79;88.76
75543;BME280;64129;53.508;10.476;2023-06-22T04:45:33;101543.34;;;16.89;87.59
75543;BME280;64129;53.508;10.476;2023-06-22T04:47:59;101537.28;;;16.84;88.72
75543;BME280;64129;53.508;10.476;2023-06-22T04:50:26;101535.16;;;16.92;87.76
75543;BME280;64129;53.508;10.476;2023-06-22T04:52:53;101540.22;;;17.01;87.06
75543;BME280;64129;53.508;10.476;2023-06-22T04:55:20;101547.34;;;17.02;85.36
75543;BME280;64129;53.508;10.476;2023-06-22T04:57:47;101541.50;;;17.14;85.03
75543;BME280;64129;53.508;10.476;2023-06-22T05:00:16;101554.38;;;17.28;84.47
75543;BME280;64129;53.508;10.476;2023-06-22T05:02:44;101548.78;;;17.34;84.66
75543;BME280;64129;53.508;10.476;2023-06-22T05:05:12;101554.69;;;17.44;83.98
75543;BME280;64129;53.508;10.476;2023-06-22T05:07:42;101543.69;;;17.50;84.40
75543;BME280;64129;53.508;10.476;2023-06-22T05:10:10;101545.56;;;17.48;85.73
75543;BME280;64129;53.508;10.476;2023-06-22T05:12:39;101553.94;;;17.62;85.53
75543;BME280;64129;53.508;10.476;2023-06-22T05:15:07;101553.81;;;17.65;86.01
75543;BME280;64129;53.508;10.476;2023-06-22T05:17:34;101555.00;;;17.82;82.43
75543;BME280;64129;53.508;10.476;2023-06-22T05:20:01;101547.25;;;17.74;82.59
75543;BME280;64129;53.508;10.476;2023-06-22T05:22:28;101549.50;;;17.85;81.12
75543;BME280;64129;53.508;10.476;2023-06-22T05:24:55;101549.38;;;17.88;79.70
75543;BME280;64129;53.508;10.476;2023-06-22T05:27:22;101554.25;;;18.00;80.33
75543;BME280;64129;53.508;10.476;2023-06-22T05:29:49;101547.25;;;17.96;77.94
75543;BME280;64129;53.508;10.476;2023-06-22T05:32:15;101551.19;;;18.09;78.50
75543;BME280;64129;53.508;10.476;2023-06-22T05:34:42;101544.88;;;18.10;79.03
75543;BME280;64129;53.508;10.476;2023-06-22T05:37:08;101550.94;;;18.15;79.24
75543;BME280;64129;53.508;10.476;2023-06-22T05:39:36;101553.47;;;18.18;78.05
75543;BME280;64129;53.508;10.476;2023-06-22T05:42:05;101554.84;;;18.28;79.67
75543;BME280;64129;53.508;10.476;2023-06-22T05:44:34;101557.66;;;18.25;78.27
75543;BME280;64129;53.508;10.476;2023-06-22T05:47:00;101552.81;;;18.33;76.77
75543;BME280;64129;53.508;10.476;2023-06-22T05:49:27;101553.94;;;18.50;76.81
75543;BME280;64129;53.508;10.476;2023-06-22T05:51:59;101549.50;;;18.49;75.44
75543;BME280;64129;53.508;10.476;2023-06-22T05:54:29;101551.38;;;18.67;72.94
75543;BME280;64129;53.508;10.476;2023-06-22T05:56:56;101557.34;;;18.75;73.88
75543;BME280;64129;53.508;10.476;2023-06-22T05:59:23;101555.97;;;18.85;72.68
75543;BME280;64129;53.508;10.476;2023-06-22T06:01:49;101559.88;;;18.78;73.11
75543;BME280;64129;53.508;10.476;2023-06-22T06:04:17;101553.06;;;18.90;74.23
75543;BME280;64129;53.508;10.476;2023-06-22T06:06:45;101557.75;;;19.05;70.62
75543;BME280;64129;53.508;10.476;2023-06-22T06:09:17;101552.69;;;19.18;70.50
75543;BME280;64129;53.508;10.476;2023-06-22T06:11:43;101547.75;;;19.27;70.50
75543;BME280;64129;53.508;10.476;2023-06-22T06:14:10;101554.44;;;19.38;70.29
75543;BME280;64129;53.508;10.476;2023-06-22T06:16:36;101548.47;;;19.50;69.41
75543;BME280;64129;53.508;10.476;2023-06-22T06:19:03;101541.66;;;19.61;67.80
75543;BME280;64129;53.508;10.476;2023-06-22T06:21:29;101549.66;;;19.82;68.03
75543;BME280;64129;53.508;10.476;2023-06-22T06:23:56;101544.69;;;19.73;66.45
75543;BME280;64129;53.508;10.476;2023-06-22T06:26:23;101542.38;;;19.84;66.74
75543;BME280;64129;53.508;10.476;2023-06-22T06:28:55;101537.41;;;19.75;66.94
75543;BME280;64129;53.508;10.476;2023-06-22T06:31:22;101536.03;;;20.02;66.96
75543;BME280;64129;53.508;10.476;2023-06-22T06:33:49;101538.22;;;20.13;66.10
75543;BME280;64129;53.508;10.476;2023-06-22T06:36:16;101539.09;;;20.13;67.02
75543;BME280;64129;53.508;10.476;2023-06-22T06:38:43;101541.34;;;20.40;65.51
75543;BME280;64129;53.508;10.476;2023-06-22T06:41:09;101541.50;;;20.71;65.08
75543;BME280;64129;53.508;10.476;2023-06-22T06:43:36;101546.84;;;20.55;65.68
75543;BME280;64129;53.508;10.476;2023-06-22T06:46:03;101549.63;;;20.54;65.42
75543;BME280;64129;53.508;10.476;2023-06-22T06:48:29;101537.81;;;20.38;66.03
75543;BME280;64129;53.508;10.476;2023-06-22T06:50:56;101536.75;;;20.59;66.19
75543;BME280;64129;53.508;10.476;2023-06-22T06:53:22;101541.94;;;20.97;65.63
75543;BME280;64129;53.508;10.476;2023-06-22T06:55:49;101532.16;;;20.94;63.80
75543;BME280;64129;53.508;10.476;2023-06-22T06:58:15;101534.97;;;20.93;65.33
75543;BME280;64129;53.508;10.476;2023-06-22T07:00:42;101526.56;;;20.81;64.72
75543;BME280;64129;53.508;10.476;2023-06-22T07:03:10;101522.66;;;21.20;63.38
75543;BME280;64129;53.508;10.476;2023-06-22T07:05:36;101529.78;;;21.21;64.34
75543;BME280;64129;53.508;10.476;2023-06-22T07:08:03;101532.97;;;21.29;63.98
75543;BME280;64129;53.508;10.476;2023-06-22T07:10:30;101531.72;;;21.19;63.93
75543;BME280;64129;53.508;10.476;2023-06-22T07:12:56;101527.56;;;21.29;64.82
75543;BME280;64129;53.508;10.476;2023-06-22T07:15:23;101527.31;;;21.81;63.32
75543;BME280;64129;53.508;10.476;2023-06-22T07:17:50;101518.97;;;22.16;61.85
75543;BME280;64129;53.508;10.476;2023-06-22T07:20:16;101516.94;;;22.49;61.41
75543;BME280;64129;53.508;10.476;2023-06-22T07:22:44;101526.03;;;22.48;60.37
75543;BME280;64129;53.508;10.476;2023-06-22T07:25:13;101510.00;;;22.45;60.60
75543;BME280;64129;53.508;10.476;2023-06-22T07:27:46;101526.91;;;22.49;60.80
75543;BME280;64129;53.508;10.476;2023-06-22T07:30:13;101525.84;;;22.37;61.28
75543;BME280;64129;53.508;10.476;2023-06-22T07:32:40;101534.50;;;22.72;60.10
75543;BME280;64129;53.508;10.476;2023-06-22T07:35:07;101528.34;;;22.40;61.86
75543;BME280;64129;53.508;10.476;2023-06-22T07:37:34;101529.75;;;22.61;60.53
75543;BME280;64129;53.508;10.476;2023-06-22T07:40:01;101532.97;;;22.68;59.46
75543;BME280;64129;53.508;10.476;2023-06-22T07:42:30;101532.31;;;22.49;61.49
75543;BME280;64129;53.508;10.476;2023-06-22T07:44:59;101527.47;;;22.39;60.82
75543;BME280;64129;53.508;10.476;2023-06-22T07:47:25;101527.47;;;22.39;62.68
75543;BME280;64129;53.508;10.476;2023-06-22T07:49:55;101524.75;;;22.69;61.70
75543;BME280;64129;53.508;10.476;2023-06-22T07:52:24;101527.28;;;22.87;60.71
75543;BME280;64129;53.508;10.476;2023-06-22T07:54:52;101524.78;;;23.12;59.32
75543;BME280;64129;53.508;10.476;2023-06-22T07:57:19;101524.28;;;23.48;59.22
75543;BME280;64129;53.508;10.476;2023-06-22T07:59:48;101525.25;;;23.61;59.25
75543;BME280;64129;53.508;10.476;2023-06-22T08:02:15;101525.94;;;23.65;57.61
75543;BME280;64129;53.508;10.476;2023-06-22T08:04:41;101528.59;;;23.79;58.16
75543;BME280;64129;53.508;10.476;2023-06-22T08:07:08;101525.72;;;23.68;58.24
75543;BME280;64129;53.508;10.476;2023-06-22T08:09:35;101518.75;;;23.50;57.79
75543;BME280;64129;53.508;10.476;2023-06-22T08:12:02;101524.41;;;23.61;58.32
75543;BME280;64129;53.508;10.476;2023-06-22T08:14:29;101522.28;;;23.79;57.39
75543;BME280;64129;53.508;10.476;2023-06-22T08:16:56;101528.31;;;24.23;56.62
75543;BME280;64129;53.508;10.476;2023-06-22T08:19:22;101519.25;;;24.37;56.81
75543;BME280;64129;53.508;10.476;2023-06-22T08:21:49;101516.91;;;24.71;54.89
75543;BME280;64129;53.508;10.476;2023-06-22T08:24:15;101527.13;;;24.80;54.97
75543;BME280;64129;53.508;10.476;2023-06-22T08:26:42;101524.72;;;24.88;55.29
75543;BME280;64129;53.508;10.476;2023-06-22T08:29:08;101531.09;;;25.01;55.47
75543;BME280;64129;53.508;10.476;2023-06-22T08:31:35;101526.59;;;25.13;53.37
75543;BME280;64129;53.508;10.476;2023-06-22T08:34:02;101527.81;;;25.09;53.71
75543;BME280;64129;53.508;10.476;2023-06-22T08:36:28;101528.22;;;24.77;52.02
75543;BME280;64129;53.508;10.476;2023-06-22T08:38:59;101519.81;;;24.42;55.00
75543;BME280;64129;53.508;10.476;2023-06-22T08:41:27;101518.44;;;24.75;52.33
75543;BME280;64129;53.508;10.476;2023-06-22T08:43:54;101523.88;;;25.13;51.62
75543;BME280;64129;53.508;10.476;2023-06-22T08:46:21;101528.66;;;25.35;52.55
75543;BME280;64129;53.508;10.476;2023-06-22T08:48:50;101521.66;;;25.31;52.35
75543;BME280;64129;53.508;10.476;2023-06-22T08:51:17;101518.56;;;25.61;50.01
75543;BME280;64129;53.508;10.476;2023-06-22T08:53:43;101515.72;;;25.75;48.96
75543;BME280;64129;53.508;10.476;2023-06-22T08:56:11;101507.78;;;25.96;49.38
75543;BME280;64129;53.508;10.476;2023-06-22T08:58:38;101510.69;;;26.05;49.19
75543;BME280;64129;53.508;10.476;2023-06-22T09:01:04;101512.69;;;25.67;49.54
75543;BME280;64129;53.508;10.476;2023-06-22T09:03:31;101508.31;;;25.77;49.04
75543;BME280;64129;53.508;10.476;2023-06-22T09:05:59;101506.69;;;25.62;49.74
75543;BME280;64129;53.508;10.476;2023-06-22T09:08:25;101508.13;;;26.15;49.53
75543;BME280;64129;53.508;10.476;2023-06-22T09:10:52;101501.31;;;26.21;48.72
75543;BME280;64129;53.508;10.476;2023-06-22T09:13:18;101506.56;;;26.00;49.31
75543;BME280;64129;53.508;10.476;2023-06-22T09:15:45;101502.91;;;25.52;48.71
75543;BME280;64129;53.508;10.476;2023-06-22T09:18:13;101503.97;;;25.74;49.86
75543;BME280;64129;53.508;10.476;2023-06-22T09:20:39;101495.16;;;25.95;47.21
75543;BME280;64129;53.508;10.476;2023-06-22T09:23:06;101493.13;;;25.86;47.83
75543;BME280;64129;53.508;10.476;2023-06-22T09:25:32;101490.13;;;26.36;48.50
75543;BME280;64129;53.508;10.476;2023-06-22T09:27:59;101490.84;;;26.85;47.09
75543;BME280;64129;53.508;10.476;2023-06-22T09:30:26;101485.22;;;27.10;46.69
75543;BME280;64129;53.508;10.476;2023-06-22T09:32:52;101483.06;;;27.47;45.13
75543;BME280;64129;53.508;10.476;2023-06-22T09:35:19;101481.53;;;27.65;45.60
75543;BME280;64129;53.508;10.476;2023-06-22T09:37:46;101475.31;;;27.75;46.58
75543;BME280;64129;53.508;10.476;2023-06-22T09:40:12;101474.22;;;27.55;45.25
75543;BME280;64129;53.508;10.476;2023-06-22T09:42:42;101461.38;;;27.89;46.48
75543;BME280;64129;53.508;10.476;2023-06-22T09:45:09;101466.50;;;28.03;44.53
75543;BME280;64129;53.508;10.476;2023-06-22T09:47:36;101464.31;;;27.97;45.16
75543;BME280;64129;53.508;10.476;2023-06-22T09:50:02;101460.16;;;28.35;43.97
75543;BME280;64129;53.508;10.476;2023-06-22T09:52:29;101456.13;;;27.97;45.56
75543;BME280;64129;53.508;10.476;2023-06-22T09:55:00;101452.09;;;28.12;42.97
75543;BME280;64129;53.508;10.476;2023-06-22T09:57:26;101453.25;;;28.51;43.27
75543;BME280;64129;53.508;10.476;2023-06-22T09:59:53;101461.03;;;28.56;44.66
75543;BME280;64129;53.508;10.476;2023-06-22T10:02:19;101451.97;;;27.82;43.39
75543;BME280;64129;53.508;10.476;2023-06-22T10:04:46;101453.09;;;28.32;44.30
75543;BME280;64129;53.508;10.476;2023-06-22T10:07:13;101449.69;;;28.40;44.62
75543;BME280;64129;53.508;10.476;2023-06-22T10:09:39;101450.19;;;28.75;41.84
75543;BME280;64129;53.508;10.476;2023-06-22T10:12:06;101445.78;;;28.84;42.99
75543;BME280;64129;53.508;10.476;2023-06-22T10:14:33;101446.41;;;29.37;41.73
75543;BME280;64129;53.508;10.476;2023-06-22T10:16:59;101447.53;;;29.15;42.02
75543;BME280;64129;53.508;10.476;2023-06-22T10:19:26;101446.19;;;29.10;42.07
75543;BME280;64129;53.508;10.476;2023-06-22T10:21:53;101443.72;;;29.47;43.22
75543;BME280;64129;53.508;10.476;2023-06-22T10:24:20;101431.81;;;29.58;39.94
75543;BME280;64129;53.508;10.476;2023-06-22T10:26:46;101437.84;;;29.52;41.20
75543;BME280;64129;53.508;10.476;2023-06-22T10:29:13;101438.41;;;29.45;42.00
75543;BME280;64129;53.508;10.476;2023-06-22T10:31:41;101425.75;;;29.73;41.73
75543;BME280;64129;53.508;10.476;2023-06-22T10:34:08;101433.84;;;30.14;41.24
75543;BME280;64129;53.508;10.476;2023-06-22T10:36:34;101420.00;;;30.25;41.30
75543;BME280;64129;53.508;10.476;2023-06-22T10:39:01;101414.81;;;29.64;41.62
75543;BME280;64129;53.508;10.476;2023-06-22T10:41:29;101418.13;;;29.77;40.18
75543;BME280;64129;53.508;10.476;2023-06-22T10:43:56;101420.72;;;29.69;41.19
75543;BME280;64129;53.508;10.476;2023-06-22T10:46:26;101411.34;;;29.81;41.15
75543;BME280;64129;53.508;10.476;2023-06-22T10:48:53;101410.88;;;30.34;41.24
75543;BME280;64129;53.508;10.476;2023-06-22T10:51:21;101401.81;;;30.33;40.53
75543;BME280;64129;53.508;10.476;2023-06-22T10:53:48;101401.75;;;30.62;39.41
75543;BME280;64129;53.508;10.476;2023-06-22T10:56:14;101406.63;;;30.68;38.99
75543;BME280;64129;53.508;10.476;2023-06-22T10:58:41;101402.31;;;30.56;37.32
75543;BME280;64129;53.508;10.476;2023-06-22T11:01:07;101401.09;;;30.31;40.18
75543;BME280;64129;53.508;10.476;2023-06-22T11:03:35;101398.81;;;29.98;40.64
75543;BME280;64129;53.508;10.476;2023-06-22T11:06:01;101397.94;;;29.97;39.50
75543;BME280;64129;53.508;10.476;2023-06-22T11:08:28;101405.59;;;29.84;41.08
75543;BME280;64129;53.508;10.476;2023-06-22T11:10:54;101399.75;;;29.29;41.19
75543;BME280;64129;53.508;10.476;2023-06-22T11:13:21;101398.91;;;30.35;40.48
75543;BME280;64129;53.508;10.476;2023-06-22T11:15:48;101388.22;;;30.88;39.87
75543;BME280;64129;53.508;10.476;2023-06-22T11:18:14;101384.09;;;31.29;37.73
75543;BME280;64129;53.508;10.476;2023-06-22T11:20:42;101386.47;;;30.60;39.64
75543;BME280;64129;53.508;10.476;2023-06-22T11:23:08;101387.78;;;29.40;40.00
75543;BME280;64129;53.508;10.476;2023-06-22T11:25:35;101384.50;;;29.46;40.11
75543;BME280;64129;53.508;10.476;2023-06-22T11:28:05;101376.19;;;29.86;39.63
75543;BME280;64129;53.508;10.476;2023-06-22T11:30:31;101373.25;;;30.26;41.51
75543;BME280;64129;53.508;10.476;2023-06-22T11:32:58;101374.13;;;30.27;38.76
75543;BME280;64129;53.508;10.476;2023-06-22T11:35:25;101376.34;;;30.60;39.85
75543;BME280;64129;53.508;10.476;2023-06-22T11:37:52;101375.06;;;30.45;40.94
75543;BME280;64129;53.508;10.476;2023-06-22T11:40:19;101367.69;;;30.55;39.55
75543;BME280;64129;53.508;10.476;2023-06-22T11:42:45;101364.94;;;29.89;39.24
75543;BME280;64129;53.508;10.476;2023-06-22T11:45:12;101369.75;;;30.34;39.82
75543;BME280;64129;53.508;10.476;2023-06-22T11:47:39;101359.59;;;29.68;39.72
75543;BME280;64129;53.508;10.476;2023-06-22T11:50:06;101363.03;;;29.80;40.59
75543;BME280;64129;53.508;10.476;2023-06-22T11:52:33;101366.06;;;29.48;40.72
75543;BME280;64129;53.508;10.476;2023-06-22T11:54:59;101356.59;;;29.62;40.81
75543;BME280;64129;53.508;10.476;2023-06-22T11:57:26;101360.84;;;29.35;41.05
75543;BME280;64129;53.508;10.476;2023-06-22T11:59:53;101362.00;;;29.42;42.77
75543;BME280;64129;53.508;10.476;2023-06-22T12:02:19;101357.44;;;29.53;41.33
75543;BME280;64129;53.508;10.476;2023-06-22T12:04:46;101359.28;;;28.83;41.76
75543;BME280;64129;53.508;10.476;2023-06-22T12:07:12;101348.78;;;29.86;40.70
75543;BME280;64129;53.508;10.476;2023-06-22T12:09:39;101350.06;;;29.82;42.67
75543;BME280;64129;53.508;10.476;2023-06-22T12:12:06;101347.31;;;30.01;42.90
75543;BME280;64129;53.508;10.476;2023-06-22T12:14:33;101342.72;;;29.92;42.33
75543;BME280;64129;53.508;10.476;2023-06-22T12:16:59;101331.72;;;30.58;40.29
75543;BME280;64129;53.508;10.476;2023-06-22T12:19:26;101333.41;;;30.32;40.82
75543;BME280;64129;53.508;10.476;2023-06-22T12:21:52;101329.97;;;30.30;40.20
75543;BME280;64129;53.508;10.476;2023-06-22T12:24:19;101323.91;;;30.26;40.69
75543;BME280;64129;53.508;10.476;2023-06-22T12:26:46;101320.34;;;30.53;39.81
75543;BME280;64129;53.508;10.476;2023-06-22T12:29:12;101314.34;;;30.40;39.96
75543;BME280;64129;53.508;10.476;2023-06-22T12:31:39;101317.47;;;30.45;39.23
75543;BME280;64129;53.508;10.476;2023-06-22T12:34:06;101318.25;;;30.75;38.79
75543;BME280;64129;53.508;10.476;2023-06-22T12:36:32;101325.44;;;30.76;39.12
75543;BME280;64129;53.508;10.476;2023-06-22T12:38:59;101309.72;;;31.58;38.42
75543;BME280;64129;53.508;10.476;2023-06-22T12:41:25;101309.72;;;31.76;39.13
75543;BME280;64129;53.508;10.476;2023-06-22T12:43:52;101296.06;;;31.49;37.83
75543;BME280;64129;53.508;10.476;2023-06-22T12:46:18;101306.16;;;30.67;39.86